Time;durP1;ratioP1;P1;durP2;ratioP2;P2;SDS_P1;SDS_P2;PMS_P1;PMS_P2;Temp;Humidity;BMP_temperature;BMP_pressure;BME280_temperature;BME280_humidity;BME280_pressure;Samples;Min_cycle;Max_cycle;Signal;HPM_P1;HPM_P2
2022/04/10 00:01:09;;;;;;;8.30;5.28;;;;;;;0.64;93.84;99100.56;5096100;28;20493;-79
2022/04/10 00:03:54;;;;;;;6.57;5.65;;;;;;;0.62;94.15;99094.59;5100651;27;20181;-80
2022/04/10 00:06:38;;;;;;;6.32;5.05;;;;;;;0.57;93.52;99095.38;5074939;27;20088;-77
2022/04/10 00:09:22;;;;;;;6.68;4.88;;;;;;;0.49;93.97;99096.63;5100859;27;20047;-75
2022/04/10 00:12:07;;;;;;;6.95;4.38;;;;;;;0.52;94.31;99095.28;5100634;27;20070;-78
2022/04/10 00:14:33;;;;;;;6.53;4.60;;;;;;;0.59;94.38;99101.31;5076313;28;20463;-76
2022/04/10 00:16:59;;;;;;;6.78;4.93;;;;;;;0.67;94.33;99095.47;5099349;27;20038;-76
2022/04/10 00:19:45;;;;;;;7.68;5.10;;;;;;;0.66;94.18;99101.91;5101922;27;20166;-75
2022/04/10 00:22:29;;;;;;;7.20;5.78;;;;;;;0.65;94.48;99105.69;5110762;27;20051;-76
2022/04/10 00:25:19;;;;;;;7.13;5.03;;;;;;;0.64;94.05;99104.06;5119711;27;20046;-76
2022/04/10 00:28:04;;;;;;;9.10;5.78;;;;;;;0.70;94.71;99108.47;5088016;27;20073;-76
2022/04/10 00:30:48;;;;;;;7.40;5.80;;;;;;;0.68;94.57;99115.97;5128068;27;20054;-75
2022/04/10 00:33:13;;;;;;;6.90;5.40;;;;;;;0.69;94.41;99116.78;5107846;27;20035;-75
2022/04/10 00:35:39;;;;;;;7.30;5.63;;;;;;;0.72;94.84;99113.59;5098053;28;20126;-75
2022/04/10 00:38:06;;;;;;;9.82;6.45;;;;;;;0.76;94.25;99112.84;5119087;27;20040;-76
2022/04/10 00:40:50;;;;;;;8.60;6.15;;;;;;;0.85;95.03;99114.00;5082909;28;20090;-75
2022/04/10 00:43:36;;;;;;;8.00;6.38;;;;;;;0.94;95.48;99105.44;5111317;28;20046;-77
2022/04/10 00:46:20;;;;;;;9.07;6.65;;;;;;;1.01;94.67;99109.56;5092114;28;20120;-77
2022/04/10 00:49:05;;;;;;;9.82;6.65;;;;;;;1.04;95.04;99116.34;5098913;27;20050;-74
2022/04/10 00:51:52;;;;;;;11.82;7.38;;;;;;;1.05;95.26;99115.28;5099492;28;20070;-76
2022/04/10 00:54:20;;;;;;;10.07;7.20;;;;;;;1.08;94.92;99117.47;5097354;28;20099;-76
2022/04/10 00:56:46;;;;;;;9.40;6.80;;;;;;;1.12;95.00;99110.47;5107633;28;20130;-76
2022/04/10 00:59:31;;;;;;;9.57;7.05;;;;;;;1.14;94.91;99111.03;5110919;28;20084;-76
2022/04/10 01:02:15;;;;;;;11.23;7.90;;;;;;;1.09;95.16;99111.81;5126489;28;20055;-77
2022/04/10 01:05:01;;;;;;;11.43;7.55;;;;;;;0.97;94.77;99119.25;5080173;28;20046;-76
2022/04/10 01:07:45;;;;;;;11.93;7.20;;;;;;;0.91;94.97;99114.88;5078564;28;20055;-76
2022/04/10 01:10:11;;;;;;;13.65;7.90;;;;;;;0.87;94.96;99119.97;5068324;28;20115;-76
2022/04/10 01:12:37;;;;;;;12.30;6.45;;;;;;;0.78;94.81;99112.59;5079934;28;20051;-75
2022/04/10 01:15:47;;;;;;;9.23;7.00;;;;;;;0.81;94.86;99112.88;5106894;28;20047;-78
2022/04/10 01:18:33;;;;;;;10.00;6.78;;;;;;;0.78;94.37;99116.09;5083247;28;20102;-75
2022/04/10 01:21:27;;;;;;;8.60;6.90;;;;;;;0.75;94.38;99121.19;5086886;28;20413;-74
2022/04/10 01:24:14;;;;;;;8.85;6.63;;;;;;;0.64;94.92;99117.56;5076685;28;20039;-74
2022/04/10 01:27:02;;;;;;;11.25;7.88;;;;;;;0.56;94.28;99124.25;5085465;28;20046;-77
2022/04/10 01:29:47;;;;;;;11.73;8.07;;;;;;;0.49;94.13;99123.59;5090035;28;20380;-76
2022/04/10 01:32:31;;;;;;;11.82;8.10;;;;;;;0.42;94.97;99120.28;5117371;28;20555;-76
2022/04/10 01:34:58;;;;;;;10.63;6.35;;;;;;;0.46;94.31;99126.81;5081931;28;20040;-75
2022/04/10 01:37:24;;;;;;;10.23;7.35;;;;;;;0.47;94.01;99133.03;5086746;28;20099;-75
2022/04/10 01:40:10;;;;;;;11.40;7.38;;;;;;;0.40;94.35;99127.00;5075095;28;20070;-75
2022/04/10 01:42:54;;;;;;;11.23;7.85;;;;;;;0.35;93.89;99125.09;5100729;28;20205;-75
2022/04/10 01:45:39;;;;;;;11.15;6.85;;;;;;;0.30;94.42;99125.81;5091523;28;20560;-76
2022/04/10 01:48:24;;;;;;;9.80;6.90;;;;;;;0.33;94.60;99124.50;5102865;28;20555;-76
2022/04/10 01:51:09;;;;;;;10.52;7.18;;;;;;;0.35;94.14;99119.69;5082405;28;20416;-75
2022/04/10 01:53:54;;;;;;;10.52;8.00;;;;;;;0.34;94.37;99114.50;5103452;28;20045;-75
2022/04/10 01:56:40;;;;;;;10.43;7.07;;;;;;;0.25;94.34;99114.97;5083372;28;20042;-74
2022/04/10 01:59:06;;;;;;;9.88;6.60;;;;;;;0.20;94.53;99116.78;5089114;27;20031;-76
2022/04/10 02:01:32;;;;;;;10.13;6.28;;;;;;;0.16;94.29;99119.16;5092625;28;20062;-75
2022/04/10 02:04:17;;;;;;;9.75;7.00;;;;;;;0.12;94.21;99123.44;5114591;27;20467;-75
2022/04/10 02:07:01;;;;;;;8.52;7.00;;;;;;;0.05;94.83;99119.28;5097974;27;20045;-76
2022/04/10 02:09:47;;;;;;;9.57;6.95;;;;;;;0.04;94.64;99129.25;5114260;27;20576;-76
2022/04/10 02:12:33;;;;;;;9.50;6.97;;;;;;;0.01;95.13;99127.06;5082978;28;20611;-75
2022/04/10 02:15:17;;;;;;;9.98;7.20;;;;;;;0.03;94.60;99119.53;5082781;28;20042;-77
2022/04/10 02:18:02;;;;;;;8.93;6.82;;;;;;;0.09;94.47;99131.19;5100882;27;20088;-74
2022/04/10 02:20:40;;;;;;;;;;;;;;;0.12;94.58;99123.44;5099417;27;20042;-77
2022/04/10 02:23:06;;;;;;;7.90;6.25;;;;;;;0.14;94.95;99123.16;5091010;28;20415;-76
2022/04/10 02:25:33;;;;;;;8.98;7.22;;;;;;;0.17;95.42;99134.28;5079210;27;20050;-77
2022/04/10 02:28:17;;;;;;;9.75;6.18;;;;;;;0.20;95.85;99133.78;5082982;28;20087;-77
2022/04/10 02:31:02;;;;;;;8.52;5.95;;;;;;;0.32;95.18;99132.84;5094205;28;20125;-77
2022/04/10 02:33:46;;;;;;;7.78;6.47;;;;;;;0.41;95.78;99120.56;5066670;28;20043;-76
2022/04/10 02:36:31;;;;;;;8.70;5.75;;;;;;;0.48;95.46;99121.16;5097203;28;20132;-76
2022/04/10 02:39:16;;;;;;;6.90;5.90;;;;;;;0.53;95.43;99110.44;5080012;28;20096;-76
2022/04/10 02:42:00;;;;;;;7.65;5.68;;;;;;;0.58;95.46;99121.28;5106804;28;20078;-77
2022/04/10 02:44:45;;;;;;;6.70;5.82;;;;;;;0.53;95.50;99107.75;5081186;27;20063;-76
2022/04/10 02:47:10;;;;;;;8.05;5.05;;;;;;;0.60;95.84;99108.34;5113234;27;20498;-76
2022/04/10 02:49:36;;;;;;;7.10;5.10;;;;;;;0.60;95.56;99103.75;5090340;28;20148;-76
2022/04/10 02:52:20;;;;;;;5.20;4.70;;;;;;;0.60;95.90;99108.34;5103446;27;20051;-76
2022/04/10 02:55:05;;;;;;;4.68;4.15;;;;;;;0.58;95.73;99102.41;5076460;28;20042;-74
2022/04/10 02:58:09;;;;;;;5.28;4.43;;;;;;;0.62;94.96;99113.50;5084437;28;20100;-75
2022/04/10 03:01:12;;;;;;;4.93;3.90;;;;;;;0.61;95.17;99107.28;5093629;27;20516;-76
2022/04/10 03:04:17;;;;;;;4.40;3.85;;;;;;;0.65;95.10;99108.41;5096125;28;20425;-77
2022/04/10 03:07:20;;;;;;;4.85;3.60;;;;;;;0.69;94.96;99106.00;5097318;28;20089;-76
2022/04/10 03:10:11;;;;;;;5.75;3.58;;;;;;;0.71;94.53;99107.41;5092718;28;20414;-75
2022/04/10 03:12:56;;;;;;;5.50;3.88;;;;;;;0.74;94.57;99114.16;5077199;28;20040;-74
2022/04/10 03:15:41;;;;;;;4.85;3.65;;;;;;;0.83;94.60;99112.63;5078152;28;20146;-74
2022/04/10 03:18:45;;;;;;;4.38;3.53;;;;;;;0.85;94.86;99110.47;5075991;27;20429;-77
2022/04/10 03:21:48;;;;;;;4.38;3.45;;;;;;;0.78;94.29;99137.69;5115745;27;20414;-77
2022/04/10 03:24:52;;;;;;;7.00;3.28;;;;;;;0.75;93.41;99113.91;5104652;27;20528;-77
2022/04/10 03:27:36;;;;;;;4.50;3.97;;;;;;;0.74;93.55;99131.19;5073280;28;20039;-75
2022/04/10 03:30:21;;;;;;;4.97;3.60;;;;;;;0.79;93.41;99127.72;5076502;28;20055;-76
2022/04/10 03:33:27;;;;;;;5.35;3.53;;;;;;;0.88;93.26;99142.41;5084083;27;20606;-76
2022/04/10 03:36:30;;;;;;;6.65;3.90;;;;;;;0.93;93.25;99137.03;5088543;28;20594;-76
2022/04/10 03:39:33;;;;;;;3.35;3.00;;;;;;;0.92;93.56;99143.50;5083447;28;20556;-75
2022/04/10 03:42:39;;;;;;;2.58;2.38;;;;;;;0.90;93.11;99145.66;5091263;27;20582;-75
2022/04/10 03:45:24;;;;;;;7.25;3.20;;;;;;;0.88;92.60;99151.31;5090493;27;20054;-74
2022/04/10 03:48:09;;;;;;;5.82;3.25;;;;;;;0.90;91.80;99146.47;5068677;28;20449;-76
2022/04/10 03:51:13;;;;;;;4.80;3.00;;;;;;;0.88;91.75;99139.69;5082631;27;20096;-77
2022/04/10 03:55:00;;;;;;;4.30;3.00;;;;;;;0.97;92.27;99142.75;5104945;27;20065;-76
2022/04/10 03:58:04;;;;;;;3.42;2.25;;;;;;;1.02;92.13;99142.78;5097460;28;20092;-77
2022/04/10 04:00:48;;;;;;;4.82;2.80;;;;;;;0.94;91.20;99168.38;5105325;27;20185;-76
2022/04/10 04:03:34;;;;;;;4.28;2.65;;;;;;;0.93;90.79;99164.06;5096954;27;20397;-76
2022/04/10 04:06:19;;;;;;;4.85;2.60;;;;;;;0.97;91.16;99151.66;5080029;28;20043;-76
2022/04/10 04:09:22;;;;;;;3.72;2.70;;;;;;;0.99;90.44;99159.50;5093049;27;20433;-76
2022/04/10 04:12:26;;;;;;;2.97;2.30;;;;;;;1.01;90.78;99158.19;5092870;28;20111;-77
2022/04/10 04:15:29;;;;;;;3.88;2.63;;;;;;;1.04;90.43;99156.84;5085850;28;20105;-76
2022/04/10 04:18:34;;;;;;;5.30;2.25;;;;;;;1.05;90.51;99153.91;5082705;28;20220;-76
2022/04/10 04:21:39;;;;;;;3.22;2.05;;;;;;;1.04;89.85;99160.41;5076706;28;20225;-76
2022/04/10 04:24:23;;;;;;;3.38;2.35;;;;;;;1.08;90.38;99166.09;5083353;28;20494;-75
2022/04/10 04:27:08;;;;;;;5.05;2.30;;;;;;;1.17;89.98;99167.25;5084954;27;20458;-75
2022/04/10 04:30:12;;;;;;;2.75;2.05;;;;;;;1.23;89.10;99163.53;5082174;28;20051;-76
2022/04/10 04:33:18;;;;;;;3.35;2.00;;;;;;;1.24;88.99;99157.06;5091176;27;20086;-76
2022/04/10 04:36:22;;;;;;;4.25;1.92;;;;;;;1.24;88.41;99167.88;5089691;28;20085;-75
2022/04/10 04:39:25;;;;;;;3.17;2.50;;;;;;;1.30;87.89;99155.22;5092896;27;20067;-76
2022/04/10 04:42:10;;;;;;;1.98;1.85;;;;;;;1.40;88.78;99166.94;5087990;28;20450;-76
2022/04/10 04:44:54;;;;;;;4.55;1.90;;;;;;;1.76;88.25;99165.31;5067936;27;20035;-75
2022/04/10 04:47:39;;;;;;;3.60;2.20;;;;;;;1.97;87.79;99160.88;5089078;27;20027;-76
2022/04/10 04:50:44;;;;;;;3.05;2.10;;;;;;;2.77;87.70;99169.63;5100372;27;20055;-76
2022/04/10 04:53:51;;;;;;;2.53;1.88;;;;;;;3.90;85.17;99166.75;5104052;27;20054;-77
2022/04/10 04:56:54;;;;;;;4.18;2.22;;;;;;;4.03;81.15;99154.53;5109332;28;20052;-77
2022/04/10 04:59:40;;;;;;;2.85;2.13;;;;;;;4.17;79.05;99166.44;5092254;27;20401;-74
2022/04/10 05:02:25;;;;;;;3.35;1.95;;;;;;;4.08;78.42;99178.94;5095553;28;20047;-75
2022/04/10 05:05:30;;;;;;;3.67;2.35;;;;;;;3.84;77.12;99181.44;5088902;28;20425;-75
2022/04/10 05:08:39;;;;;;;4.70;2.13;;;;;;;3.63;77.75;99180.59;5097818;28;20540;-76
2022/04/10 05:11:43;;;;;;;2.92;2.00;;;;;;;3.50;77.51;99180.34;5107479;28;20046;-75
2022/04/10 05:14:46;;;;;;;4.57;2.28;;;;;;;3.33;77.36;99169.75;5092373;28;20055;-74
2022/04/10 05:17:51;;;;;;;2.70;1.98;;;;;;;3.19;77.80;99179.50;5108054;28;20078;-74
2022/04/10 05:20:37;;;;;;;2.22;2.03;;;;;;;3.08;78.12;99181.34;5094861;28;20050;-77
2022/04/10 05:23:30;;;;;;;2.83;2.22;;;;;;;2.91;78.26;99188.91;5109287;28;20498;-76
2022/04/10 05:26:42;;;;;;;3.75;2.20;;;;;;;2.83;78.66;99186.72;5101284;28;20120;-77
2022/04/10 05:29:46;;;;;;;3.28;1.80;;;;;;;2.90;79.28;99190.78;5079576;28;20063;-76
2022/04/10 05:32:49;;;;;;;4.97;2.50;;;;;;;2.91;78.81;99194.31;5083790;28;20419;-76
2022/04/10 05:35:55;;;;;;;4.65;2.50;;;;;;;2.85;79.07;99201.63;5082043;28;20051;-76
2022/04/10 05:38:40;;;;;;;3.88;2.60;;;;;;;2.80;78.98;99195.38;5090720;28;20495;-76
2022/04/10 05:41:24;;;;;;;3.95;2.40;;;;;;;2.80;79.30;99198.91;5087727;28;20044;-76
2022/04/10 05:44:14;;;;;;;4.88;2.40;;;;;;;2.70;79.25;99201.56;5077013;28;20036;-75
2022/04/10 05:47:19;;;;;;;3.78;2.50;;;;;;;2.64;78.73;99208.84;5090130;28;20089;-75
2022/04/10 05:50:22;;;;;;;3.30;2.50;;;;;;;2.69;79.80;99203.47;5081480;28;20106;-75
2022/04/10 05:53:26;;;;;;;4.90;1.88;;;;;;;2.81;78.99;99202.44;5083563;28;20154;-76
2022/04/10 05:56:29;;;;;;;3.70;2.28;;;;;;;3.50;78.77;99192.00;5082016;28;20059;-76
2022/04/10 05:59:33;;;;;;;4.53;2.28;;;;;;;4.67;77.05;99191.00;5084001;28;20249;-75
2022/04/10 06:02:18;;;;;;;4.97;2.58;;;;;;;5.38;74.53;99188.72;5082546;28;20036;-74
2022/04/10 06:05:03;;;;;;;5.72;2.95;;;;;;;6.17;71.12;99183.19;5076489;28;20044;-75
2022/04/10 06:08:07;;;;;;;5.93;2.55;;;;;;;6.54;69.08;99190.69;5078300;28;20512;-75
2022/04/10 06:11:11;;;;;;;5.38;2.33;;;;;;;6.21;67.65;99204.09;5086800;28;20425;-75
2022/04/10 06:14:16;;;;;;;4.18;2.22;;;;;;;5.85;67.03;99205.50;5090242;28;20087;-75
2022/04/10 06:17:01;;;;;;;4.82;2.33;;;;;;;5.33;67.83;99199.63;5087021;28;20051;-74
2022/04/10 06:19:47;;;;;;;5.55;2.33;;;;;;;4.95;68.42;99212.06;5074881;28;20182;-75
2022/04/10 06:22:34;;;;;;;3.45;2.30;;;;;;;4.58;69.73;99212.50;5077733;28;20047;-76
2022/04/10 06:25:20;;;;;;;3.80;2.13;;;;;;;4.13;70.18;99213.41;5090724;28;20043;-76
2022/04/10 06:27:46;;;;;;;4.90;2.08;;;;;;;4.00;71.77;99213.97;5086601;28;20036;-76
2022/04/10 06:30:12;;;;;;;3.10;1.90;;;;;;;3.89;72.01;99221.31;5078091;28;20540;-76
2022/04/10 06:33:03;;;;;;;4.10;2.00;;;;;;;3.77;72.65;99221.56;5070665;28;20047;-75
2022/04/10 06:35:48;;;;;;;5.70;2.20;;;;;;;3.74;73.72;99224.84;5086448;28;20374;-77
2022/04/10 06:38:33;;;;;;;5.47;2.13;;;;;;;3.57;73.55;99221.56;5093263;28;20139;-76
2022/04/10 06:41:33;;;;;;;3.63;1.70;;;;;;;3.35;74.08;99235.38;5092816;28;20133;-76
2022/04/10 06:44:23;;;;;;;5.00;2.15;;;;;;;3.21;73.64;99229.63;5083248;28;20131;-75
2022/04/10 06:46:56;;;;;;;4.93;1.88;;;;;;;3.15;74.13;99230.72;5086289;27;20100;-78
2022/04/10 06:49:29;;;;;;;4.32;1.60;;;;;;;3.17;74.60;99244.81;5087197;28;20040;-76
2022/04/10 06:51:57;;;;;;;3.05;1.52;;;;;;;3.23;75.35;99240.22;5084677;28;20532;-74
2022/04/10 06:54:49;;;;;;;3.72;1.73;;;;;;;3.29;75.37;99223.69;5075870;27;20092;-74
2022/04/10 06:57:35;;;;;;;1.92;1.45;;;;;;;3.30;74.61;99238.06;5094183;27;20099;-75
2022/04/10 07:00:20;;;;;;;4.97;1.45;;;;;;;3.38;75.36;99245.66;5091473;28;20047;-75
2022/04/10 07:02:48;;;;;;;2.50;1.60;;;;;;;3.46;75.29;99252.44;5087794;27;20071;-75
2022/04/10 07:05:14;;;;;;;4.70;1.80;;;;;;;3.37;74.57;99243.22;5078851;28;20047;-76
2022/04/10 07:07:45;;;;;;;2.35;1.27;;;;;;;3.20;74.63;99254.31;5084550;28;20031;-75
2022/04/10 07:10:31;;;;;;;4.88;1.38;;;;;;;3.17;74.89;99250.22;5089485;28;20054;-77
2022/04/10 07:13:21;;;;;;;3.53;1.60;;;;;;;3.07;75.07;99255.59;5086615;27;20070;-76
2022/04/10 07:15:52;;;;;;;6.00;1.80;;;;;;;3.05;75.21;99256.97;5106048;27;20036;-76
2022/04/10 07:18:19;;;;;;;4.22;1.52;;;;;;;3.02;75.80;99263.72;5090874;28;20494;-77
2022/04/10 07:21:04;;;;;;;2.38;1.40;;;;;;;3.05;75.83;99268.63;5078171;27;20414;-74
2022/04/10 07:23:50;;;;;;;5.78;1.70;;;;;;;3.03;75.99;99276.19;5082816;28;20042;-76
2022/04/10 07:26:46;;;;;;;4.18;1.48;;;;;;;3.14;76.15;99282.47;5083495;27;20545;-76
2022/04/10 07:29:33;;;;;;;5.70;1.42;;;;;;;3.17;76.43;99280.06;5087103;28;20059;-76
2022/04/10 07:32:18;;;;;;;3.25;1.48;;;;;;;3.16;76.11;99281.13;5086945;28;20459;-76
2022/04/10 07:34:50;;;;;;;5.68;1.65;;;;;;;3.28;76.78;99272.75;5088513;28;20050;-77
2022/04/10 07:37:32;;;;;;;5.35;1.98;;;;;;;3.37;76.38;99282.00;5087436;28;20032;-77
2022/04/10 07:40:21;;;;;;;3.30;1.60;;;;;;;3.42;76.18;99290.13;5084430;28;20051;-76
2022/04/10 07:42:48;;;;;;;3.65;1.60;;;;;;;3.39;75.68;99295.28;5061935;27;20138;-77
2022/04/10 07:48:44;;;;;;;4.18;1.80;;;;;;;3.53;76.05;99288.28;5095615;27;20051;-75
2022/04/10 07:51:32;;;;;;;5.15;1.80;;;;;;;3.66;75.58;99289.66;5082036;27;20417;-76
2022/04/10 07:54:25;;;;;;;3.90;2.83;;;;;;;3.72;75.72;99302.16;5090101;28;20587;-76
2022/04/10 07:57:12;;;;;;;3.97;1.98;;;;;;;3.68;74.78;99293.75;5089559;27;20095;-76
2022/04/10 07:59:38;;;;;;;3.38;1.30;;;;;;;3.60;75.08;99291.53;5076818;28;20040;-76
2022/04/10 08:02:04;;;;;;;2.60;1.98;;;;;;;3.48;74.70;99288.28;5074581;28;20063;-77
2022/04/10 08:04:33;;;;;;;9.52;2.13;;;;;;;3.47;75.06;99292.03;5073326;28;20154;-76
2022/04/10 08:07:56;;;;;;;5.63;1.58;;;;;;;3.55;75.62;99295.06;5013985;28;20424;-74
2022/04/10 08:10:40;;;;;;;2.97;1.63;;;;;;;3.53;75.03;99293.72;5022550;28;20099;-75
2022/04/10 08:13:24;;;;;;;5.82;1.90;;;;;;;3.45;74.90;99294.22;5098976;27;20137;-74
2022/04/10 08:15:50;;;;;;;3.58;2.05;;;;;;;3.43;74.50;99299.09;5102867;28;20122;-75
2022/04/10 08:18:16;;;;;;;5.10;1.60;;;;;;;3.40;74.96;99303.16;5100052;27;20399;-76
2022/04/10 08:20:41;;;;;;;5.32;1.75;;;;;;;3.49;75.00;99306.19;5094891;27;20487;-75
2022/04/10 08:23:08;;;;;;;3.65;1.23;;;;;;;3.54;75.02;99311.59;5083670;28;20473;-76
2022/04/10 08:25:58;;;;;;;3.80;1.35;;;;;;;3.60;74.80;99310.53;5088923;28;20117;-76
2022/04/10 08:28:42;;;;;;;3.00;1.30;;;;;;;3.70;73.65;99307.03;5084314;28;20059;-76
2022/04/10 08:31:28;;;;;;;2.95;1.10;;;;;;;4.12;72.77;99310.31;5089077;27;20059;-75
2022/04/10 08:34:13;;;;;;;2.60;1.20;;;;;;;4.45;71.01;99305.41;5100345;28;20088;-76
2022/04/10 08:36:39;;;;;;;2.13;1.00;;;;;;;4.94;70.35;99305.59;5102951;27;20122;-76
2022/04/10 08:39:05;;;;;;;1.58;1.10;;;;;;;5.55;68.95;99316.19;5099709;27;20127;-76
2022/04/10 08:41:33;;;;;;;2.80;1.17;;;;;;;5.68;67.47;99315.56;5078208;28;20044;-75
2022/04/10 08:44:17;;;;;;;2.55;1.25;;;;;;;5.50;66.94;99316.22;5104562;27;20104;-75
2022/04/10 08:47:03;;;;;;;2.90;1.35;;;;;;;5.19;67.00;99320.97;5101952;27;20038;-74
2022/04/10 08:49:49;;;;;;;1.85;1.02;;;;;;;5.04;67.95;99321.06;5118334;27;20089;-75
2022/04/10 08:52:34;;;;;;;4.80;1.58;;;;;;;4.82;67.15;99332.25;5124803;27;20459;-76
2022/04/10 08:54:59;;;;;;;3.92;1.50;;;;;;;4.76;68.35;99330.63;5091713;28;20408;-75
2022/04/10 08:57:25;;;;;;;2.72;1.30;;;;;;;4.77;68.61;99335.81;5102641;28;20119;-77
2022/04/10 08:59:55;;;;;;;7.70;1.13;;;;;;;4.75;68.87;99343.41;5106349;28;20499;-75
2022/04/10 09:02:48;;;;;;;2.60;1.17;;;;;;;4.70;69.62;99348.88;5100491;28;20046;-74
2022/04/10 09:05:32;;;;;;;1.98;1.08;;;;;;;4.50;69.10;99338.00;5096752;28;20155;-74
2022/04/10 09:08:17;;;;;;;2.95;1.30;;;;;;;4.44;69.57;99353.50;5082218;28;20176;-74
2022/04/10 09:11:08;;;;;;;4.22;1.20;;;;;;;4.30;69.65;99346.16;5099415;28;20092;-75
2022/04/10 09:13:59;;;;;;;3.25;1.20;;;;;;;4.29;69.79;99347.25;5065540;28;20050;-74
2022/04/10 09:16:43;;;;;;;3.03;0.88;;;;;;;4.34;70.07;99356.22;5100130;28;20051;-75
2022/04/10 09:19:08;;;;;;;3.40;1.20;;;;;;;4.41;70.08;99370.34;5089207;28;20031;-76
2022/04/10 09:21:36;;;;;;;2.78;1.48;;;;;;;4.46;70.18;99364.91;5101203;28;20512;-76
2022/04/10 09:24:09;;;;;;;6.25;1.50;;;;;;;4.45;69.80;99363.28;5093852;28;20032;-74
2022/04/10 09:26:58;;;;;;;7.43;1.15;;;;;;;4.66;70.20;99365.97;5100947;28;20046;-74
2022/04/10 09:29:50;;;;;;;4.20;1.38;;;;;;;4.94;69.62;99370.00;5097436;28;20059;-74
2022/04/10 09:32:47;;;;;;;4.70;1.63;;;;;;;4.85;69.51;99375.19;5095489;28;20104;-77
2022/04/10 09:35:42;;;;;;;3.47;1.52;;;;;;;4.84;69.04;99371.66;5092813;28;20100;-74
2022/04/10 09:38:29;;;;;;;2.63;1.35;;;;;;;4.81;69.15;99380.34;5078850;28;20039;-75
2022/04/10 09:41:13;;;;;;;3.10;1.15;;;;;;;4.85;69.53;99380.63;5096664;28;20089;-74
2022/04/10 09:43:39;;;;;;;3.05;1.88;;;;;;;4.69;68.88;99373.59;5098383;28;20072;-76
2022/04/10 09:46:11;;;;;;;4.22;1.38;;;;;;;4.73;68.91;99378.19;5116379;28;20126;-78
2022/04/10 09:48:55;;;;;;;2.70;1.58;;;;;;;4.80;68.87;99380.63;5111913;28;20049;-75
2022/04/10 09:51:58;;;;;;;4.57;1.60;;;;;;;4.72;68.34;99390.16;5119368;28;20073;-75
2022/04/10 09:54:46;;;;;;;3.50;1.77;;;;;;;4.97;68.91;99393.91;5102250;28;20116;-72
2022/04/10 09:57:16;;;;;;;3.67;1.20;;;;;;;5.31;68.12;99394.13;5094549;28;20074;-75
2022/04/10 09:59:46;;;;;;;6.00;1.92;;;;;;;5.61;67.50;99377.69;5103206;28;20543;-74
2022/04/10 10:02:14;;;;;;;1.80;1.00;;;;;;;5.60;66.50;99389.66;5107761;28;20042;-74
2022/04/10 10:04:58;;;;;;;3.97;1.17;;;;;;;5.72;66.56;99398.28;5104276;28;20401;-74
2022/04/10 10:07:42;;;;;;;4.53;1.45;;;;;;;5.82;66.63;99392.00;5095002;28;20073;-75
2022/04/10 10:10:32;;;;;;;1.85;1.00;;;;;;;5.71;64.62;99387.69;5101704;28;20133;-74
2022/04/10 10:13:16;;;;;;;4.60;1.20;;;;;;;5.44;65.75;99401.69;5086833;28;20077;-76
2022/04/10 10:16:00;;;;;;;2.88;1.20;;;;;;;5.20;66.63;99412.34;5104935;28;20047;-75
2022/04/10 10:18:40;;;;;;;1.42;1.23;;;;;;;5.26;67.13;99415.88;5101477;27;20043;-76
2022/04/10 10:21:09;;;;;;;3.63;1.10;;;;;;;5.29;67.27;99413.44;5118847;27;20031;-76
2022/04/10 10:23:36;;;;;;;1.45;1.08;;;;;;;5.18;67.49;99419.97;5098261;27;20126;-76
2022/04/10 10:26:42;;;;;;;2.10;1.30;;;;;;;5.09;67.90;99425.16;5104237;27;20609;-76
2022/04/10 10:29:45;;;;;;;4.47;1.17;;;;;;;5.08;68.34;99428.16;5101260;27;20113;-74
2022/04/10 10:32:56;;;;;;;3.40;1.20;;;;;;;5.00;68.93;99429.53;5108662;27;20123;-75
2022/04/10 10:35:35;;;;;;;1.77;1.33;;;;;;;5.09;68.18;99443.38;5089200;28;20486;-74
2022/04/10 10:38:01;;;;;;;1.85;0.93;;;;;;;5.19;68.84;99450.69;5125665;27;20054;-74
2022/04/10 10:40:45;;;;;;;5.32;0.98;;;;;;;5.27;68.52;99450.16;5111437;27;20062;-76
2022/04/10 10:43:29;;;;;;;3.42;1.52;;;;;;;5.36;68.15;99464.81;5120048;27;20104;-74
2022/04/10 10:46:24;;;;;;;2.28;1.20;;;;;;;5.44;68.67;99456.91;5122219;27;20177;-75
2022/04/10 10:49:16;;;;;;;4.75;1.50;;;;;;;5.38;68.84;99454.47;5097798;27;20046;-74
2022/04/10 10:52:07;;;;;;;5.40;1.30;;;;;;;5.52;68.18;99451.97;5116000;27;20408;-75
2022/04/10 10:54:52;;;;;;;3.75;0.93;;;;;;;5.69;67.83;99464.16;5112093;27;20055;-74
2022/04/10 10:57:21;;;;;;;2.55;1.50;;;;;;;5.78;67.87;99458.16;5108319;27;20031;-77
2022/04/10 10:59:50;;;;;;;5.57;1.27;;;;;;;5.84;67.96;99454.31;5122492;27;20096;-74
2022/04/10 11:02:37;;;;;;;3.63;1.20;;;;;;;5.90;68.12;99459.50;5109924;27;20085;-75
2022/04/10 11:05:24;;;;;;;3.55;1.20;;;;;;;6.04;67.22;99459.69;5096239;27;20045;-75
2022/04/10 11:08:10;;;;;;;4.25;1.55;;;;;;;6.15;67.22;99461.28;5110489;27;20042;-76
2022/04/10 11:11:00;;;;;;;3.50;1.58;;;;;;;6.29;66.48;99478.63;5100781;27;20428;-76
2022/04/10 11:13:46;;;;;;;3.97;0.90;;;;;;;6.24;66.61;99470.47;5122991;27;20116;-75
2022/04/10 11:16:31;;;;;;;5.22;1.50;;;;;;;6.10;66.37;99476.84;5128276;27;20515;-75
2022/04/10 11:19:15;;;;;;;4.40;1.30;;;;;;;5.79;66.91;99474.22;5094182;27;20092;-76
2022/04/10 11:21:44;;;;;;;6.00;1.60;;;;;;;5.65;67.27;99484.88;5123690;27;20035;-75
2022/04/10 11:24:21;;;;;;;4.85;1.30;;;;;;;5.69;68.07;99474.25;5126996;27;20046;-76
2022/04/10 11:27:11;;;;;;;3.55;1.52;;;;;;;5.84;68.35;99476.09;5102332;27;20458;-75
2022/04/10 11:30:02;;;;;;;4.43;1.52;;;;;;;5.96;67.39;99491.06;5120992;27;20078;-76
2022/04/10 11:32:54;;;;;;;5.40;1.95;;;;;;;6.05;67.11;99483.09;5118556;27;20211;-75
2022/04/10 11:35:41;;;;;;;3.88;1.63;;;;;;;6.20;66.86;99498.56;5121222;27;20046;-75
2022/04/10 11:38:25;;;;;;;5.80;1.45;;;;;;;6.28;65.69;99506.16;5097329;28;20054;-76
2022/04/10 11:41:10;;;;;;;4.18;1.88;;;;;;;6.20;66.07;99495.84;5084962;27;20042;-77
2022/04/10 11:43:36;;;;;;;6.72;1.70;;;;;;;6.16;66.06;99495.59;5091256;28;20077;-75
2022/04/10 11:46:02;;;;;;;3.85;1.50;;;;;;;6.20;66.22;99506.75;5099082;27;20038;-75
2022/04/10 11:48:50;;;;;;;6.28;1.50;;;;;;;6.23;66.16;99506.97;5130782;27;20468;-75
2022/04/10 11:51:58;;;;;;;2.97;1.42;;;;;;;6.31;65.61;99492.78;5085310;28;20520;-75
2022/04/10 11:54:42;;;;;;;6.07;1.63;;;;;;;6.21;66.24;99514.63;5104033;27;20063;-85
2022/04/10 11:57:27;;;;;;;6.28;2.13;;;;;;;6.16;66.13;99511.94;5094474;27;20082;-83
2022/04/10 12:00:12;;;;;;;2.95;1.27;;;;;;;6.11;66.67;99511.97;5114658;27;20047;-85
2022/04/10 12:02:38;;;;;;;4.75;1.23;;;;;;;5.98;67.07;99520.72;5109887;27;20032;-88
2022/04/10 12:05:06;;;;;;;4.45;1.67;;;;;;;5.91;66.88;99526.47;5112242;28;20042;-90
2022/04/10 12:07:58;;;;;;;4.93;1.70;;;;;;;5.97;67.59;99519.09;5123041;27;20043;-85
2022/04/10 12:11:00;;;;;;;4.03;1.60;;;;;;;5.99;66.97;99522.34;5094466;27;20422;-80
2022/04/10 12:13:44;;;;;;;1.98;1.58;;;;;;;6.08;66.96;99533.50;5094595;28;20043;-77
2022/04/10 12:16:28;;;;;;;3.88;1.60;;;;;;;6.04;67.78;99514.16;5106974;27;20050;-79
2022/04/10 12:19:12;;;;;;;5.43;1.67;;;;;;;5.87;67.58;99527.25;5098196;27;20050;-78
2022/04/10 12:21:56;;;;;;;6.28;1.77;;;;;;;5.88;67.86;99529.69;5093728;27;20100;-81
2022/04/10 12:24:22;;;;;;;6.00;2.35;;;;;;;5.96;68.47;99517.47;5060761;28;20040;-79
2022/04/10 12:26:49;;;;;;;5.50;1.90;;;;;;;6.02;67.66;99510.91;5126324;27;20126;-82
2022/04/10 12:29:16;;;;;;;5.88;2.67;;;;;;;5.91;67.40;99510.16;5098702;27;20597;-76
2022/04/10 12:32:01;;;;;;;3.80;1.88;;;;;;;5.92;66.92;99517.22;5103627;28;20046;-75
2022/04/10 12:34:47;;;;;;;9.15;1.40;;;;;;;5.97;67.15;99519.09;5127933;27;20125;-79
2022/04/10 12:37:31;;;;;;;4.15;1.35;;;;;;;5.96;66.47;99523.72;5119514;27;20073;-89
2022/04/10 12:39:58;;;;;;;6.78;1.60;;;;;;;5.97;65.67;99514.47;5101565;28;20647;-89
2022/04/10 12:42:24;;;;;;;3.05;1.38;;;;;;;5.93;65.20;99528.94;5112575;27;20036;-87
2022/04/10 12:44:55;;;;;;;4.25;1.73;;;;;;;5.88;66.04;99532.44;5127946;27;20092;-85
2022/04/10 12:47:46;;;;;;;3.85;1.30;;;;;;;5.83;65.24;99531.63;5120635;27;20108;-82
2022/04/10 12:50:31;;;;;;;5.13;1.60;;;;;;;5.81;66.39;99521.03;5114660;27;20135;-83
2022/04/10 12:53:16;;;;;;;3.22;1.60;;;;;;;5.79;66.52;99534.09;5075760;28;20169;-90
2022/04/10 12:56:00;;;;;;;2.42;1.05;;;;;;;5.81;65.85;99531.09;5076042;28;20043;-89
2022/04/10 12:58:48;;;;;;;4.90;1.30;;;;;;;5.84;66.18;99541.44;5099966;28;20055;-86
2022/04/10 13:01:39;;;;;;;4.60;1.77;;;;;;;5.83;66.45;99542.53;5072280;28;20572;-85
2022/04/10 13:04:05;;;;;;;6.90;1.10;;;;;;;5.84;65.65;99536.81;5090851;28;20039;-87
2022/04/10 13:06:51;;;;;;;2.47;1.10;;;;;;;5.87;65.91;99524.53;5109845;28;20152;-86
2022/04/10 13:09:36;;;;;;;4.65;1.30;;;;;;;5.93;65.68;99529.75;5114143;28;20050;-84